createdAt,value
2017-10-30T00:02:08.220Z,42.20
2017-10-30T00:04:36.292Z,42.10
2017-10-30T00:07:04.384Z,42.50
2017-10-30T00:09:32.455Z,42.90
2017-10-30T00:12:00.538Z,43.20
2017-10-30T00:14:28.620Z,43.50
2017-10-30T00:16:57.467Z,44.00
2017-10-30T00:19:25.544Z,43.90
2017-10-30T00:21:53.636Z,44.50
2017-10-30T00:24:21.700Z,44.20
2017-10-30T00:26:49.779Z,43.70
2017-10-30T00:29:17.852Z,43.90
2017-10-30T00:31:45.924Z,44.10
2017-10-30T00:34:13.996Z,44.10
2017-10-30T00:36:42.079Z,44.30
2017-10-30T00:39:10.145Z,44.10
2017-10-30T00:41:38.224Z,44.50
2017-10-30T00:44:06.296Z,44.10
2017-10-30T00:46:34.372Z,44.00
2017-10-30T00:49:02.439Z,44.20
2017-10-30T00:51:30.523Z,43.80
2017-10-30T00:53:59.365Z,43.70
2017-10-30T00:56:27.526Z,43.70
2017-10-30T00:58:55.661Z,43.70
2017-10-30T01:01:23.735Z,43.80
2017-10-30T01:03:52.563Z,43.30
2017-10-30T01:06:20.643Z,43.20
2017-10-30T01:08:48.720Z,43.10
2017-10-30T01:11:16.793Z,42.80
2017-10-30T01:13:44.876Z,42.90
2017-10-30T01:16:12.949Z,42.80
2017-10-30T01:18:41.029Z,42.80
2017-10-30T01:21:09.099Z,42.80
2017-10-30T01:23:37.167Z,43.20
2017-10-30T01:26:05.241Z,43.50
2017-10-30T01:28:33.328Z,43.30
2017-10-30T01:31:01.405Z,43.40
2017-10-30T01:33:29.489Z,43.60
2017-10-30T01:35:57.564Z,43.60
2017-10-30T01:38:26.420Z,43.50
2017-10-30T01:40:54.509Z,43.50
2017-10-30T01:43:22.586Z,43.40
2017-10-30T01:45:50.662Z,43.30
2017-10-30T01:48:18.739Z,43.10
2017-10-30T01:50:46.811Z,42.90
2017-10-30T01:53:14.890Z,43.00
2017-10-30T01:55:42.955Z,43.10
2017-10-30T01:58:11.040Z,43.00
2017-10-30T02:00:39.880Z,43.10
2017-10-30T02:03:07.960Z,43.00
2017-10-30T02:05:36.038Z,43.30
2017-10-30T02:08:04.129Z,43.20
2017-10-30T02:10:32.229Z,43.60
2017-10-30T02:13:01.072Z,44.30
2017-10-30T02:15:29.148Z,44.20
2017-10-30T02:17:57.218Z,44.10
2017-10-30T02:20:25.292Z,44.40
2017-10-30T02:22:53.368Z,44.60
2017-10-30T02:25:21.464Z,45.50
2017-10-30T02:27:49.540Z,44.90
2017-10-30T02:30:17.625Z,44.80
2017-10-30T02:32:46.472Z,45.50
2017-10-30T02:35:14.548Z,45.30
2017-10-30T02:37:42.636Z,45.80
2017-10-30T02:40:10.709Z,46.00
2017-10-30T02:42:38.852Z,46.80
2017-10-30T02:45:06.925Z,46.80
2017-10-30T02:47:35.013Z,46.80
2017-10-30T02:50:03.101Z,46.60
2017-10-30T02:52:31.179Z,46.80
2017-10-30T02:54:59.252Z,46.80
2017-10-30T02:57:27.336Z,46.80
2017-10-30T02:59:56.176Z,46.90
2017-10-30T03:02:24.267Z,46.80
2017-10-30T03:04:52.337Z,47.60
2017-10-30T03:07:20.441Z,47.50
2017-10-30T03:09:48.495Z,47.30
2017-10-30T03:12:16.580Z,47.60
2017-10-30T03:14:44.656Z,48.00
2017-10-30T03:17:12.733Z,47.90
2017-10-30T03:19:41.576Z,46.70
2017-10-30T03:22:09.664Z,46.70
2017-10-30T03:24:37.732Z,46.70
2017-10-30T03:27:05.810Z,46.60
2017-10-30T03:29:33.878Z,46.70
2017-10-30T03:32:01.951Z,46.70
2017-10-30T03:34:30.023Z,46.70
2017-10-30T03:36:58.111Z,46.70
2017-10-30T03:39:26.227Z,46.70
2017-10-30T03:41:54.324Z,46.70
2017-10-30T03:44:22.395Z,46.70
2017-10-30T03:46:50.479Z,46.70
2017-10-30T03:49:18.564Z,46.70
2017-10-30T03:51:46.639Z,46.70
2017-10-30T03:54:14.715Z,46.60
2017-10-30T03:56:42.794Z,46.70
2017-10-30T03:59:10.983Z,46.70
2017-10-30T04:01:39.823Z,46.60
2017-10-30T04:04:08.667Z,46.60
2017-10-30T04:06:37.502Z,46.60
2017-10-30T04:09:05.590Z,46.60
2017-10-30T04:11:33.669Z,46.60
2017-10-30T04:14:01.774Z,46.60
2017-10-30T04:16:29.841Z,46.60
2017-10-30T04:18:57.921Z,46.60
2017-10-30T04:21:26.768Z,46.70
2017-10-30T04:23:54.852Z,46.60
2017-10-30T04:26:22.918Z,46.70
2017-10-30T04:28:51.088Z,46.60
2017-10-30T04:31:19.147Z,46.60
2017-10-30T04:33:48.005Z,46.70
2017-10-30T04:36:16.841Z,46.70
2017-10-30T04:38:44.919Z,46.60
2017-10-30T04:41:12.992Z,46.70
2017-10-30T04:43:41.063Z,46.70
2017-10-30T04:46:09.136Z,46.70
2017-10-30T04:48:37.212Z,46.60
2017-10-30T04:51:05.284Z,46.60
2017-10-30T04:53:33.361Z,46.70
2017-10-30T04:56:01.431Z,46.60
2017-10-30T04:58:29.535Z,46.70
2017-10-30T05:00:57.608Z,46.70
2017-10-30T05:03:25.685Z,46.70
2017-10-30T05:05:54.529Z,46.10
2017-10-30T05:08:22.608Z,46.00
2017-10-30T05:10:50.679Z,46.30
2017-10-30T05:13:18.756Z,46.60
2017-10-30T05:15:46.832Z,46.60
2017-10-30T05:18:14.902Z,46.60
2017-10-30T05:20:42.977Z,46.60
2017-10-30T05:23:11.053Z,46.60
2017-10-30T05:25:39.116Z,46.60
2017-10-30T05:28:07.192Z,46.60
2017-10-30T05:30:35.277Z,46.60
2017-10-30T05:33:03.359Z,46.60
2017-10-30T05:35:31.429Z,46.60
2017-10-30T05:37:59.508Z,46.70
2017-10-30T05:40:27.571Z,46.60
2017-10-30T05:42:55.661Z,46.70
2017-10-30T05:45:23.732Z,46.70
2017-10-30T05:47:52.593Z,46.70
2017-10-30T05:50:20.660Z,46.70
2017-10-30T05:52:48.747Z,46.30
2017-10-30T05:55:16.819Z,46.40
2017-10-30T05:57:44.891Z,46.00
2017-10-30T06:00:12.969Z,46.00
2017-10-30T06:02:41.034Z,45.90
2017-10-30T06:05:09.112Z,45.60
2017-10-30T06:07:37.180Z,45.70
2017-10-30T06:10:05.260Z,45.30
2017-10-30T06:12:33.331Z,45.40
2017-10-30T06:15:01.412Z,45.30
2017-10-30T06:17:29.484Z,45.50
2017-10-30T06:19:57.559Z,45.30
2017-10-30T06:22:26.397Z,45.00
2017-10-30T06:24:54.497Z,44.90
2017-10-30T06:27:22.576Z,44.90
2017-10-30T06:29:50.655Z,45.00
2017-10-30T06:32:18.732Z,44.80
2017-10-30T06:34:46.808Z,44.70
2017-10-30T06:37:14.883Z,44.90
2017-10-30T06:39:42.959Z,45.20
2017-10-30T06:42:11.029Z,44.20
2017-10-30T06:44:39.182Z,44.80
2017-10-30T06:47:07.247Z,44.20
2017-10-30T06:49:35.336Z,44.10
2017-10-30T06:52:03.402Z,44.60
2017-10-30T06:54:31.508Z,43.90
2017-10-30T06:57:00.351Z,43.60
2017-10-30T06:59:28.427Z,44.20
2017-10-30T07:01:56.509Z,43.50
2017-10-30T07:04:24.589Z,43.80
2017-10-30T07:06:52.694Z,43.50
2017-10-30T07:09:21.527Z,43.20
2017-10-30T07:11:49.615Z,43.00
2017-10-30T07:14:17.688Z,43.00
2017-10-30T07:16:45.761Z,43.20
2017-10-30T07:19:13.827Z,43.20
2017-10-30T07:21:41.896Z,43.20
2017-10-30T07:24:09.977Z,43.30
2017-10-30T07:26:38.043Z,43.50
2017-10-30T07:29:06.115Z,43.50
2017-10-30T07:31:34.171Z,43.40
2017-10-30T07:34:03.028Z,44.00
2017-10-30T07:36:31.857Z,44.00
2017-10-30T07:38:59.940Z,44.00
2017-10-30T07:41:28.011Z,44.90
2017-10-30T07:43:56.195Z,47.30
2017-10-30T07:46:24.260Z,44.00
2017-10-30T07:48:52.340Z,43.90
2017-10-30T07:51:20.439Z,43.70
2017-10-30T07:53:49.290Z,43.00
2017-10-30T07:56:17.359Z,43.00
2017-10-30T07:58:45.444Z,42.80
2017-10-30T08:01:13.520Z,42.50
2017-10-30T08:03:41.603Z,48.50
2017-10-30T08:06:09.679Z,42.40
2017-10-30T08:08:37.763Z,43.30
2017-10-30T08:11:06.604Z,41.60
2017-10-30T08:13:34.684Z,41.30
2017-10-30T08:16:02.759Z,40.00
2017-10-30T08:18:30.845Z,39.00
2017-10-30T08:20:58.924Z,39.20
2017-10-30T08:23:26.982Z,39.30
2017-10-30T08:25:55.063Z,39.40
2017-10-30T08:28:23.136Z,38.00
2017-10-30T08:30:51.218Z,37.80
2017-10-30T08:33:19.280Z,37.30
2017-10-30T08:35:47.364Z,37.10
2017-10-30T08:38:15.444Z,37.20
2017-10-30T08:40:43.524Z,38.50
2017-10-30T08:43:11.588Z,37.50
2017-10-30T08:45:39.669Z,37.30
2017-10-30T08:48:08.511Z,37.00
2017-10-30T08:50:36.592Z,37.00
2017-10-30T08:53:04.690Z,36.70
2017-10-30T08:55:32.777Z,37.60
2017-10-30T08:58:01.686Z,38.30
2017-10-30T09:00:30.528Z,39.00
2017-10-30T09:02:58.621Z,39.80
2017-10-30T09:05:26.704Z,38.40
2017-10-30T09:07:55.548Z,38.60
2017-10-30T09:10:23.641Z,38.10
2017-10-30T09:12:51.716Z,38.20
2017-10-30T09:15:19.788Z,38.00
2017-10-30T09:17:47.864Z,38.60
2017-10-30T09:20:15.944Z,36.90
2017-10-30T09:22:44.031Z,37.50
2017-10-30T09:25:12.938Z,36.10
2017-10-30T09:27:41.772Z,36.10
2017-10-30T09:30:09.848Z,36.00
2017-10-30T09:32:37.919Z,36.40
2017-10-30T09:35:06.004Z,37.00
2017-10-30T09:37:34.076Z,36.80
2017-10-30T09:40:02.152Z,36.60
2017-10-30T09:42:30.215Z,37.40
2017-10-30T09:44:58.288Z,39.50
2017-10-30T09:47:26.363Z,40.30
2017-10-30T09:49:54.436Z,39.50
2017-10-30T09:52:22.508Z,41.30
2017-10-30T09:54:50.600Z,43.20
2017-10-30T09:57:18.704Z,42.70
2017-10-30T09:59:47.545Z,43.40
2017-10-30T10:02:15.625Z,43.40
2017-10-30T10:04:43.703Z,44.30
2017-10-30T10:07:11.782Z,44.10
2017-10-30T10:09:39.863Z,47.90
2017-10-30T10:12:08.703Z,48.70
2017-10-30T10:14:36.776Z,48.70
2017-10-30T10:17:04.855Z,47.90
2017-10-30T10:19:32.921Z,47.60
2017-10-30T10:22:01.752Z,45.90
2017-10-30T10:24:29.831Z,45.80
2017-10-30T10:26:58.801Z,50.10
2017-10-30T10:29:26.900Z,50.00
2017-10-30T10:31:55.739Z,47.60
2017-10-30T10:34:23.810Z,47.60
2017-10-30T10:36:51.938Z,44.90
2017-10-30T10:39:20.800Z,45.80
2017-10-30T10:41:48.872Z,45.60
2017-10-30T10:44:16.952Z,46.70
2017-10-30T10:46:45.016Z,46.70
2017-10-30T10:49:13.108Z,44.90
2017-10-30T10:51:41.194Z,44.60
2017-10-30T10:54:10.057Z,42.90
2017-10-30T10:56:38.133Z,42.80
2017-10-30T10:59:06.204Z,44.00
2017-10-30T11:01:34.304Z,43.40
2017-10-30T11:04:02.376Z,42.00
2017-10-30T11:06:31.241Z,42.70
2017-10-30T11:08:59.308Z,42.70
2017-10-30T11:11:27.401Z,43.80
2017-10-30T11:13:55.479Z,40.90
2017-10-30T11:16:23.552Z,41.40
2017-10-30T11:18:51.617Z,41.20
2017-10-30T11:21:19.688Z,39.70
2017-10-30T11:23:47.761Z,41.70
2017-10-30T11:26:15.844Z,41.00
2017-10-30T11:28:43.916Z,40.60
2017-10-30T11:31:12.803Z,39.00
2017-10-30T11:33:40.871Z,39.00
2017-10-30T11:36:08.969Z,39.70
2017-10-30T11:38:37.804Z,40.10
2017-10-30T11:41:05.889Z,40.10
2017-10-30T11:43:33.966Z,41.10
2017-10-30T11:46:02.052Z,40.20
2017-10-30T11:48:30.133Z,42.80
2017-10-30T11:50:58.228Z,43.30
2017-10-30T11:53:26.309Z,43.80
2017-10-30T11:55:54.400Z,45.10
2017-10-30T11:58:23.235Z,43.70
2017-10-30T12:00:51.318Z,43.70
2017-10-30T12:03:20.163Z,42.70
2017-10-30T12:05:48.254Z,43.30
2017-10-30T12:08:16.337Z,42.40
2017-10-30T12:10:44.429Z,43.10
2017-10-30T12:13:12.496Z,41.20
2017-10-30T12:15:40.573Z,41.50
2017-10-30T12:18:09.409Z,41.40
2017-10-30T12:20:37.511Z,41.40
2017-10-30T12:23:05.595Z,45.20
2017-10-30T12:25:33.825Z,39.80
2017-10-30T12:28:01.887Z,37.30
2017-10-30T12:30:29.975Z,39.20
2017-10-30T12:32:58.056Z,38.10
2017-10-30T12:35:26.140Z,39.00
2017-10-30T12:37:54.211Z,37.60
2017-10-30T12:40:22.304Z,38.00
2017-10-30T12:42:50.388Z,38.10
2017-10-30T12:45:18.470Z,37.40
2017-10-30T12:47:47.329Z,36.30
2017-10-30T12:50:15.405Z,36.20
2017-10-30T12:52:43.487Z,37.70
2017-10-30T12:55:12.208Z,38.30
2017-10-30T12:57:41.037Z,36.40
2017-10-30T13:00:09.116Z,36.40
2017-10-30T13:02:37.193Z,36.80
2017-10-30T13:05:05.281Z,34.20
2017-10-30T13:07:33.376Z,34.80
2017-10-30T13:10:02.220Z,33.60
2017-10-30T13:12:30.301Z,33.50
2017-10-30T13:14:58.375Z,32.60
2017-10-30T13:17:26.443Z,32.70
2017-10-30T13:19:54.519Z,31.80
2017-10-30T13:22:22.592Z,32.00
2017-10-30T13:24:50.669Z,31.70
2017-10-30T13:27:18.736Z,31.80
2017-10-30T13:29:46.808Z,33.00
2017-10-30T13:32:14.884Z,35.00
2017-10-30T13:34:42.961Z,34.80
2017-10-30T13:37:11.056Z,34.40
2017-10-30T13:39:39.136Z,34.20
2017-10-30T13:42:07.998Z,35.70
2017-10-30T13:44:36.075Z,35.60
2017-10-30T13:47:04.156Z,36.10
2017-10-30T13:49:32.228Z,35.10
2017-10-30T13:52:00.313Z,36.00
2017-10-30T13:54:28.384Z,35.90
2017-10-30T13:56:56.468Z,35.10
2017-10-30T13:59:25.317Z,33.70
2017-10-30T14:01:53.389Z,33.60
2017-10-30T14:04:21.455Z,32.40
2017-10-30T14:06:49.548Z,31.60
2017-10-30T14:09:17.633Z,32.10
2017-10-30T14:11:45.761Z,31.60
2017-10-30T14:14:13.844Z,31.40
2017-10-30T14:16:41.945Z,32.30
2017-10-30T14:19:10.016Z,32.30
2017-10-30T14:21:38.100Z,32.50
2017-10-30T14:24:06.179Z,32.20
2017-10-30T14:26:35.032Z,33.90
2017-10-30T14:29:03.108Z,33.80
2017-10-30T14:31:31.191Z,32.80
2017-10-30T14:33:59.283Z,32.80
2017-10-30T14:36:27.363Z,31.70
2017-10-30T14:38:56.245Z,31.10
2017-10-30T14:41:24.416Z,31.10
2017-10-30T14:43:52.492Z,31.60
2017-10-30T14:46:20.563Z,32.50
2017-10-30T14:48:48.639Z,32.10
2017-10-30T14:51:16.716Z,31.10
2017-10-30T14:53:45.601Z,31.40
2017-10-30T14:56:13.664Z,31.30
2017-10-30T14:58:41.819Z,30.00
2017-10-30T15:01:09.887Z,29.10
2017-10-30T15:03:37.964Z,28.80
2017-10-30T15:06:06.042Z,29.20
2017-10-30T15:08:34.113Z,29.10
2017-10-30T15:11:02.185Z,28.20
2017-10-30T15:13:30.268Z,28.40
2017-10-30T15:15:58.344Z,29.10
2017-10-30T15:18:26.425Z,28.20
2017-10-30T15:20:54.498Z,28.20
2017-10-30T15:23:22.588Z,28.00
2017-10-30T15:25:51.435Z,28.10
2017-10-30T15:28:19.530Z,28.10
2017-10-30T15:30:47.607Z,28.20
2017-10-30T15:33:15.681Z,27.60
2017-10-30T15:35:43.760Z,27.40
2017-10-30T15:38:12.591Z,27.20
2017-10-30T15:40:40.815Z,27.10
2017-10-30T15:43:08.902Z,28.10
2017-10-30T15:45:37.749Z,28.40
2017-10-30T15:48:05.817Z,28.30
2017-10-30T15:50:33.899Z,27.90
2017-10-30T15:53:01.972Z,28.80
2017-10-30T15:55:30.057Z,28.60
2017-10-30T15:57:58.121Z,29.00
2017-10-30T16:00:26.190Z,28.80
2017-10-30T16:02:54.255Z,29.30
2017-10-30T16:05:22.332Z,29.70
2017-10-30T16:07:50.438Z,29.80
2017-10-30T16:10:18.497Z,29.80
2017-10-30T16:12:46.581Z,30.20
2017-10-30T16:15:15.537Z,31.10
2017-10-30T16:17:43.628Z,30.60
2017-10-30T16:20:11.690Z,30.60
2017-10-30T16:22:39.806Z,29.80
2017-10-30T16:25:08.631Z,30.60
2017-10-30T16:27:36.703Z,30.60
2017-10-30T16:30:04.791Z,30.00
2017-10-30T16:32:32.884Z,31.10
2017-10-30T16:35:00.966Z,30.60
2017-10-30T16:37:29.044Z,30.60
2017-10-30T16:39:57.128Z,31.10
2017-10-30T16:42:25.973Z,31.10
2017-10-30T16:44:54.060Z,31.10
2017-10-30T16:47:22.129Z,32.40
2017-10-30T16:49:50.196Z,32.60
2017-10-30T16:52:18.269Z,32.40
2017-10-30T16:54:46.344Z,31.70
2017-10-30T16:57:14.418Z,33.00
2017-10-30T16:59:42.499Z,32.90
2017-10-30T17:02:10.592Z,32.40
2017-10-30T17:04:39.429Z,32.90
2017-10-30T17:07:07.500Z,33.50
2017-10-30T17:09:35.572Z,33.10
2017-10-30T17:12:04.418Z,33.50
2017-10-30T17:14:32.477Z,33.40
2017-10-30T17:17:00.558Z,33.70
2017-10-30T17:19:28.632Z,34.00
2017-10-30T17:21:56.711Z,34.60
2017-10-30T17:24:24.783Z,34.90
2017-10-30T17:26:53.625Z,35.50
2017-10-30T17:29:21.700Z,35.50
2017-10-30T17:31:49.788Z,35.10
2017-10-30T17:34:17.851Z,35.40
2017-10-30T17:36:45.931Z,35.50
2017-10-30T17:39:14.001Z,34.90
2017-10-30T17:41:42.072Z,35.50
2017-10-30T17:44:10.148Z,35.90
2017-10-30T17:46:38.217Z,36.40
2017-10-30T17:49:06.292Z,35.50
2017-10-30T17:51:34.364Z,35.40
2017-10-30T17:54:02.450Z,36.60
2017-10-30T17:56:30.522Z,35.80
2017-10-30T17:58:58.602Z,36.10
2017-10-30T18:01:26.680Z,35.70
2017-10-30T18:03:54.740Z,35.90
2017-10-30T18:06:22.816Z,35.60
2017-10-30T18:08:50.884Z,35.90
2017-10-30T18:11:18.950Z,36.00
2017-10-30T18:13:47.036Z,36.50
2017-10-30T18:16:15.104Z,37.00
2017-10-30T18:18:43.192Z,37.40
2017-10-30T18:21:11.248Z,36.60
2017-10-30T18:23:39.335Z,37.10
2017-10-30T18:26:08.176Z,36.40
2017-10-30T18:28:36.247Z,36.30
2017-10-30T18:31:04.327Z,36.20
2017-10-30T18:33:32.411Z,36.30
2017-10-30T18:36:00.484Z,36.40
2017-10-30T18:38:28.556Z,36.70
2017-10-30T18:40:56.627Z,36.60
2017-10-30T18:43:24.696Z,36.90
2017-10-30T18:45:52.783Z,36.20
2017-10-30T18:48:20.864Z,37.20
2017-10-30T18:50:48.957Z,36.60
2017-10-30T18:53:17.824Z,37.20
2017-10-30T18:55:45.901Z,37.10
2017-10-30T18:58:13.984Z,37.30
2017-10-30T19:00:42.048Z,37.30
2017-10-30T19:03:10.113Z,36.70
2017-10-30T19:05:38.192Z,37.30
2017-10-30T19:08:06.273Z,37.30
2017-10-30T19:10:34.360Z,37.20
2017-10-30T19:13:02.429Z,37.60
2017-10-30T19:15:30.503Z,37.40
2017-10-30T19:17:59.357Z,37.40
2017-10-30T19:20:27.438Z,37.30
2017-10-30T19:22:55.517Z,37.60
2017-10-30T19:25:23.598Z,38.20
2017-10-30T19:27:51.676Z,37.80
2017-10-30T19:30:20.525Z,37.90
2017-10-30T19:32:48.603Z,37.80
2017-10-30T19:35:17.631Z,37.30
2017-10-30T19:37:45.701Z,37.80
2017-10-30T19:40:13.776Z,37.70
2017-10-30T19:42:41.850Z,37.10
2017-10-30T19:45:09.920Z,38.90
2017-10-30T19:47:38.802Z,37.20
2017-10-30T19:50:06.884Z,37.10
2017-10-30T19:52:34.955Z,37.10
2017-10-30T19:55:03.032Z,36.90
2017-10-30T19:57:31.890Z,37.50
2017-10-30T19:59:59.972Z,37.40
2017-10-30T20:02:28.068Z,37.20
2017-10-30T20:04:56.917Z,37.40
2017-10-30T20:07:30.712Z,37.30
2017-10-30T20:10:04.376Z,36.50
2017-10-30T20:12:33.230Z,36.90
2017-10-30T20:15:01.303Z,36.80
2017-10-30T20:17:29.396Z,37.30
2017-10-30T20:19:57.465Z,37.10
2017-10-30T20:22:25.540Z,37.10
2017-10-30T20:24:53.605Z,36.90
2017-10-30T20:27:21.680Z,36.80
2017-10-30T20:29:49.752Z,37.00
2017-10-30T20:32:17.825Z,36.40
2017-10-30T20:34:45.915Z,36.00
2017-10-30T20:37:14.769Z,35.90
2017-10-30T20:39:42.863Z,35.90
2017-10-30T20:42:10.956Z,36.10
2017-10-30T20:44:39.035Z,36.30
2017-10-30T20:47:07.896Z,36.20
2017-10-30T20:49:35.979Z,36.10
2017-10-30T20:52:04.056Z,36.20
2017-10-30T20:54:32.916Z,36.50
2017-10-30T20:57:00.982Z,37.10
2017-10-30T20:59:29.063Z,35.90
2017-10-30T21:01:57.135Z,35.40
2017-10-30T21:04:25.222Z,35.40
2017-10-30T21:06:53.293Z,36.70
2017-10-30T21:09:22.207Z,35.50
2017-10-30T21:11:51.062Z,35.70
2017-10-30T21:14:19.140Z,35.60
2017-10-30T21:16:47.213Z,35.70
2017-10-30T21:19:15.300Z,36.10
2017-10-30T21:21:43.389Z,36.00
2017-10-30T21:24:12.297Z,36.20
2017-10-30T21:26:40.450Z,36.20
2017-10-30T21:29:08.529Z,36.20
2017-10-30T21:31:37.371Z,35.80
2017-10-30T21:34:05.462Z,35.80
2017-10-30T21:36:33.646Z,36.30
2017-10-30T21:39:01.730Z,35.60
2017-10-30T21:41:29.811Z,35.20
2017-10-30T21:43:58.664Z,37.70
2017-10-30T21:46:26.743Z,37.60
2017-10-30T21:48:54.813Z,36.30
2017-10-30T21:51:22.889Z,36.60
2017-10-30T21:53:50.966Z,36.70
2017-10-30T21:56:19.044Z,36.50
2017-10-30T21:58:47.142Z,36.90
2017-10-30T22:01:15.984Z,36.90
2017-10-30T22:03:44.063Z,36.80
2017-10-30T22:06:12.140Z,37.20
2017-10-30T22:08:40.218Z,37.40
2017-10-30T22:11:08.300Z,38.70
2017-10-30T22:13:36.384Z,38.80
2017-10-30T22:16:04.448Z,39.20
2017-10-30T22:18:32.528Z,38.70
2017-10-30T22:21:00.601Z,38.80
2017-10-30T22:23:28.671Z,39.20
2017-10-30T22:25:56.737Z,39.20
2017-10-30T22:28:24.828Z,39.70
2017-10-30T22:30:53.680Z,39.30
2017-10-30T22:33:21.769Z,39.20
2017-10-30T22:35:49.834Z,39.20
2017-10-30T22:38:17.921Z,39.20
2017-10-30T22:40:45.985Z,39.30
2017-10-30T22:43:14.056Z,39.30
2017-10-30T22:45:43.135Z,39.30
2017-10-30T22:48:11.212Z,39.30
2017-10-30T22:50:39.284Z,39.20
2017-10-30T22:53:07.355Z,39.20
2017-10-30T22:55:35.426Z,39.20
2017-10-30T22:58:03.500Z,39.20
2017-10-30T23:00:31.575Z,39.20
2017-10-30T23:02:59.660Z,39.30
2017-10-30T23:05:27.735Z,39.20
2017-10-30T23:07:55.807Z,39.30
2017-10-30T23:10:23.880Z,39.30
2017-10-30T23:12:51.967Z,38.70
2017-10-30T23:15:20.040Z,39.30
2017-10-30T23:17:48.121Z,39.20
2017-10-30T23:20:16.965Z,39.90
2017-10-30T23:22:45.045Z,39.20
2017-10-30T23:25:13.116Z,39.20
2017-10-30T23:27:41.187Z,39.20
2017-10-30T23:30:09.268Z,39.20
2017-10-30T23:32:37.331Z,39.20
2017-10-30T23:35:05.409Z,39.20
2017-10-30T23:37:33.642Z,39.20
2017-10-30T23:40:01.732Z,39.10
2017-10-30T23:42:29.842Z,39.20
2017-10-30T23:44:57.928Z,39.20
2017-10-30T23:47:25.998Z,39.20
2017-10-30T23:49:54.076Z,39.30
2017-10-30T23:52:22.149Z,39.20
2017-10-30T23:54:50.225Z,39.20
2017-10-30T23:57:19.059Z,39.10
2017-10-30T23:59:47.135Z,39.10
